»·PEaware :: GIHOT L52-L88

GIHOT :: L52-L88

FLIGHT INFORMATION

Flight Status: Arrived
Operator: Unknown
More flights by this operator :: More flights under this callsign
Pilot: Pedro F. (20756)
Aircraft: PIPER PA-28 CHEROKEE ARCHER
(PA28)
More flights by this aircraft type
Origin: L52 Oceano Co
United States
Destination: L88 New Cuyama
United States
More flights between these airports :: More routes between these airports
Route: PATTERN WORK
File this flight plan on PilotEdge
Remarks: 1st day in Pilotedge. If possible talk a bit slower Sir ;) Thank you.
Altitude:
(Current/Filed)
7,500ft
Speed:
(Current/Filed)
100kts
Departed: 10-Oct-18 10:46 AM
Arrived: 10-Oct-18 11:18 AM
Distance/Time
Traveled:
47nm/0:31
Distance/Time
To Go:
Arrived

Flight Plot

Page will automatically refresh every two minutes.

Flight plan parsing failed; only flown route is shown


Map Options




Map Legend


Flown Route
Filed Route
Departure Airport
Arrival Airport
Navaid (VOR, NDB)
Fix

Horizontal Profiles

Position Reports

Time Latitude Longitude Heading Altitude Ground
Speed
10-Oct-18 10:36 34.894107 -120.443637 17 264ft 0kts
10-Oct-18 10:37 35.103497 -120.624071 35 17ft 0kts
10-Oct-18 10:38 35.103497 -120.624071 35 17ft 0kts
10-Oct-18 10:39 35.103497 -120.624071 35 17ft 0kts
10-Oct-18 10:40 35.103497 -120.624071 35 17ft 0kts
10-Oct-18 10:41 35.103497 -120.624071 35 17ft 0kts
10-Oct-18 10:42 35.103497 -120.624071 35 17ft 0kts
10-Oct-18 10:43 35.103497 -120.624071 35 17ft 0kts
10-Oct-18 10:44 35.103499 -120.624069 35 17ft 0kts
10-Oct-18 10:45 35.103501 -120.624067 35 17ft 0kts
10-Oct-18 10:46 35.102616 -120.623796 209 17ft 0kts
10-Oct-18 10:47 35.102106 -120.622419 131 17ft 2kts
10-Oct-18 10:48 35.104525 -120.628328 293 121ft 72kts
10-Oct-18 10:49 35.109861 -120.645353 176 1180ft 70kts
10-Oct-18 10:50 35.097360 -120.625490 81 2127ft 95kts
10-Oct-18 10:51 35.095640 -120.596146 103 3080ft 99kts
10-Oct-18 10:52 35.090040 -120.560769 107 3524ft 107kts
10-Oct-18 10:53 35.084674 -120.524250 100 3490ft 109kts
10-Oct-18 10:54 35.079771 -120.487895 103 3532ft 108kts
10-Oct-18 10:55 35.074666 -120.451532 103 3558ft 108kts
10-Oct-18 10:56 35.069726 -120.415087 103 3577ft 108kts
10-Oct-18 10:57 35.064798 -120.378684 102 3603ft 109kts
10-Oct-18 10:58 35.057741 -120.343171 140 3495ft 113kts
10-Oct-18 10:59 35.039031 -120.318105 107 3454ft 103kts
10-Oct-18 11:00 35.031915 -120.282734 106 3441ft 108kts
10-Oct-18 11:01 35.024481 -120.247237 107 3455ft 108kts
10-Oct-18 11:02 35.017413 -120.211748 106 3494ft 107kts
10-Oct-18 11:03 35.010333 -120.176231 106 3515ft 108kts
10-Oct-18 11:04 35.003383 -120.140569 106 3562ft 107kts
10-Oct-18 11:05 34.996431 -120.104595 106 4016ft 91kts
10-Oct-18 11:06 34.989354 -120.073840 106 4935ft 91kts
10-Oct-18 11:07 34.984484 -120.047550 106 5635ft 93kts
10-Oct-18 11:08 34.978295 -120.011872 105 6627ft 92kts
10-Oct-18 11:09 34.972804 -119.980287 105 7426ft 90kts
10-Oct-18 11:10 34.967392 -119.950815 106 7514ft 116kts
10-Oct-18 11:11 34.960395 -119.911165 105 7526ft 120kts
10-Oct-18 11:12 34.953383 -119.871186 106 7540ft 120kts
10-Oct-18 11:13 34.945236 -119.824500 102 7501ft 117kts
10-Oct-18 11:14 34.944056 -119.791733 91 6756ft 120kts
10-Oct-18 11:15 34.945896 -119.763502 87 6016ft 120kts
10-Oct-18 11:16 34.947027 -119.723342 97 4831ft 116kts
10-Oct-18 11:17 34.930307 -119.690831 123 3678ft 109kts
10-Oct-18 11:18 34.918631 -119.664802 84 3250ft 78kts
10-Oct-18 11:19 34.931964 -119.674203 292 2510ft 73kts
10-Oct-18 11:20 34.938395 -119.690804 291 2206ft 23kts
10-Oct-18 11:21 34.939781 -119.693398 21 2206ft 0kts
10-Oct-18 11:22 34.939781 -119.693398 21 2206ft 0kts
10-Oct-18 11:23 34.939781 -119.693398 21 2206ft 0kts
10-Oct-18 11:24 34.939781 -119.693398 21 2206ft 0kts
10-Oct-18 11:25 34.939781 -119.693398 21 2206ft 0kts
10-Oct-18 11:26 34.939781 -119.693398 21 2206ft 0kts
10-Oct-18 11:27 34.939781 -119.693398 21 2206ft 0kts
10-Oct-18 11:28 34.939781 -119.693398 21 2206ft 0kts
10-Oct-18 11:29 34.939781 -119.693398 21 2206ft 0kts
10-Oct-18 11:30 34.939781 -119.693398 21 2206ft 0kts
10-Oct-18 11:31 34.939781 -119.693398 21 2206ft 0kts
10-Oct-18 11:32 34.939781 -119.693398 21 2206ft 0kts
10-Oct-18 11:33 34.939781 -119.693398 21 2206ft 0kts
10-Oct-18 11:34 34.939781 -119.693398 21 2206ft 0kts

Navigation Log

Ident Type
Flight plan parsing failed, navigation log unavailable